Colonial Beach, VA (22443)

10:21 AM EDT on August 04, 2015 (GMT -0400)
Colonial Beach | | Change Station
CLOSE
Current Station
Personal Weather Station
Location: Colonial Beach, VA
Elevation: 13 ft
Nearby Weather Stations

Elev 13 ft 38.26 °N, 76.97 °W | Updated 21 seconds ago

Clear
Clear
83.9 °F
Feels Like 93 °F
N
1.0
Wind Variable Wind from SW
Gusts 9.0 mph

Today
High -- | Low -- °F
--% Chance of Precip.
Yesterday
High -- | Low -- °F
Precip. -- in
6:12 AM 8:14 PM
Waning Gibbous, 77% visible
Pressure 29.96 in
Visibility 10.0 miles
Clouds Clear
Heat Index 93 °F
Dew Point 76 °F
Humidity 77%
Rainfall 0.00 in
Snow Depth Not available.
UV 6 out of 12
Pollen 8.00 out of 12
Air Quality Not available.
Flu Activity Not available.
METAR K2W6 041411Z AUTO 24007KT 10SM CLR 27/21 A2996 RMK AO1

More Conditions Fewer Conditions

Pressure 29.96 in
Visibility 10.0 miles
Clouds Clear
Heat Index 93 °F
Dew Point 76 °F
Humidity 77%
Rainfall 0.00 in
Snow Depth Not available.
UV 6 out of 12
Pollen 8.00 out of 12
Air Quality Not available.
Flu Activity Not available.
METAR K2W6 041411Z AUTO 24007KT 10SM CLR 27/21 A2996 RMK AO1

More Conditions Fewer Conditions

10-Day Weather Forecast

×

Almanac

Astronomy

Aug. 04, 2015 Rise Set
Actual Time
Civil Twilight
Nautical Twilight
Astronomical Twilight
Moon
Length of Visible Light
Length of Day
Tomorrow will be .
, % of the Moon is Illuminated

Today's Extremes

State Highs State Lows

Community

WunderPhotos

Upload Photos

1,843,917 photos uploaded!

WunderBlogs® & News

Nearby

Air Quality

  Air Quality AQ Index Pollutant
Not available.

Snow Depth

Station Depth Elevation

Earthquake Activity

City Distance Mag. Time & Date
Minimum magnitude displayed is 2.5.

Coastal Water Temperatures

Place Temperature

Stations

Nearby Weather Stations

Station Location Temp. Windchill Dew Point Humidity Wind Precip. Elev Updated Type